Time;durP1;ratioP1;P1;durP2;ratioP2;P2;SDS_P1;SDS_P2;PMS_P1;PMS_P2;Temp;Humidity;BMP_temperature;BMP_pressure;BME280_temperature;BME280_humidity;BME280_pressure;Samples;Min_cycle;Max_cycle;Signal;HPM_P1;HPM_P2
2022/01/07 00:00:07;;;;;;;12.45;8.88;;;;;;;;;;4968291;28;20429;-92
2022/01/07 00:02:34;;;;;;;10.70;8.13;;;;;;;;;;4968437;28;20423;-92
2022/01/07 00:05:02;;;;;;;10.38;7.95;;;;;;;;;;4968558;28;20414;-93
2022/01/07 00:07:29;;;;;;;10.77;7.75;;;;;;;;;;4968009;28;20421;-93
2022/01/07 00:09:56;;;;;;;10.43;7.57;;;;;;;;;;4966582;28;20418;-92
2022/01/07 00:12:23;;;;;;;10.02;7.68;;;;;;;;;;4968653;28;20425;-92
2022/01/07 00:14:50;;;;;;;9.87;8.23;;;;;;;;;;4972274;28;20426;-93
2022/01/07 00:17:17;;;;;;;9.23;7.40;;;;;;;;;;4977066;28;20417;-92
2022/01/07 00:19:44;;;;;;;10.13;7.75;;;;;;;;;;4991060;28;20410;-93
2022/01/07 00:22:13;;;;;;;11.70;7.90;;;;;;;;;;4969837;28;20416;-92
2022/01/07 00:24:40;;;;;;;11.57;8.40;;;;;;;;;;4964346;28;20429;-92
2022/01/07 00:27:07;;;;;;;11.50;7.90;;;;;;;;;;4967193;28;20755;-92
2022/01/07 00:29:34;;;;;;;9.30;7.18;;;;;;;;;;4967656;28;20425;-92
2022/01/07 00:32:01;;;;;;;10.75;7.47;;;;;;;;;;4968195;28;20413;-92
2022/01/07 00:34:28;;;;;;;9.30;7.28;;;;;;;;;;4967305;28;20425;-92
2022/01/07 00:36:55;;;;;;;10.17;7.20;;;;;;;;;;4968103;28;20502;-93
2022/01/07 00:39:23;;;;;;;9.90;7.65;;;;;;;;;;4962379;28;20423;-93
2022/01/07 00:41:50;;;;;;;11.13;7.75;;;;;;;;;;4967204;28;20419;-92
2022/01/07 00:44:17;;;;;;;9.25;6.85;;;;;;;;;;4967517;28;20414;-93
2022/01/07 00:46:44;;;;;;;9.63;6.40;;;;;;;;;;4967627;28;20768;-92
2022/01/07 00:49:13;;;;;;;8.20;6.00;;;;;;;;;;4965948;28;20441;-92
2022/01/07 00:51:40;;;;;;;8.18;6.13;;;;;;;;;;4962793;28;20793;-93
2022/01/07 00:54:07;;;;;;;8.00;5.90;;;;;;;;;;4966754;28;20415;-93
2022/01/07 00:56:35;;;;;;;7.53;5.63;;;;;;;;;;4966841;28;20426;-92
2022/01/07 00:59:02;;;;;;;6.68;5.30;;;;;;;;;;4966860;28;20398;-92
2022/01/07 01:01:29;;;;;;;7.03;5.28;;;;;;;;;;4967245;28;20410;-92
2022/01/07 01:03:56;;;;;;;5.50;4.80;;;;;;;;;;4967103;28;20421;-92
2022/01/07 01:06:23;;;;;;;5.38;4.60;;;;;;;;;;4966991;28;20911;-92
2022/01/07 01:08:51;;;;;;;5.87;4.60;;;;;;;;;;4967279;28;20446;-92
2022/01/07 01:11:17;;;;;;;6.17;4.30;;;;;;;;;;4964690;28;20514;-93
2022/01/07 01:13:46;;;;;;;6.35;4.70;;;;;;;;;;4967111;28;20489;-92
2022/01/07 01:16:13;;;;;;;7.32;4.93;;;;;;;;;;4966987;28;20419;-92
2022/01/07 01:18:40;;;;;;;5.40;4.47;;;;;;;;;;4967059;28;20424;-91
2022/01/07 01:21:07;;;;;;;5.75;4.60;;;;;;;;;;4967033;28;20418;-93
2022/01/07 01:23:34;;;;;;;6.22;4.80;;;;;;;;;;4966160;28;20422;-93
2022/01/07 01:26:01;;;;;;;5.30;4.60;;;;;;;;;;4964370;28;20928;-94
2022/01/07 01:28:28;;;;;;;5.47;4.22;;;;;;;;;;4966722;28;20413;-92
2022/01/07 01:30:57;;;;;;;5.97;4.65;;;;;;;;;;4966736;28;20772;-90
2022/01/07 01:33:24;;;;;;;5.95;4.63;;;;;;;;;;4967457;28;20464;-93
2022/01/07 01:35:51;;;;;;;5.57;4.60;;;;;;;;;;4967278;28;20420;-93
2022/01/07 01:38:17;;;;;;;6.28;4.43;;;;;;;;;;4969296;28;20414;-94
2022/01/07 01:40:45;;;;;;;6.70;4.43;;;;;;;;;;4968322;28;20407;-91
2022/01/07 01:43:12;;;;;;;5.75;4.70;;;;;;;;;;4970292;28;20418;-93
2022/01/07 01:45:39;;;;;;;6.25;4.90;;;;;;;;;;4973928;28;20410;-93
2022/01/07 01:48:07;;;;;;;6.67;4.80;;;;;;;;;;4971498;28;20509;-92
2022/01/07 01:50:34;;;;;;;5.90;4.80;;;;;;;;;;4970096;28;20434;-94
2022/01/07 01:53:01;;;;;;;6.68;4.70;;;;;;;;;;4969176;28;20417;-92
2022/01/07 01:55:29;;;;;;;5.75;4.57;;;;;;;;;;4968433;28;20445;-91
2022/01/07 01:57:56;;;;;;;6.30;4.55;;;;;;;;;;4970169;28;20416;-93
2022/01/07 02:00:25;;;;;;;6.45;4.30;;;;;;;;;;4970150;28;20430;-92
2022/01/07 02:02:52;;;;;;;7.00;4.77;;;;;;;;;;4968185;28;20421;-94
2022/01/07 02:05:22;;;;;;;5.97;4.40;;;;;;;;;;4969842;28;20422;-92
2022/01/07 02:07:49;;;;;;;5.65;4.50;;;;;;;;;;4970210;28;20994;-90
2022/01/07 02:10:17;;;;;;;5.90;4.25;;;;;;;;;;4968276;28;22375;-91
2022/01/07 02:12:45;;;;;;;5.20;4.40;;;;;;;;;;4966222;28;20446;-94
2022/01/07 02:15:14;;;;;;;5.90;4.20;;;;;;;;;;4968805;28;20426;-93
2022/01/07 02:17:42;;;;;;;6.63;4.65;;;;;;;;;;4968997;28;20481;-92
2022/01/07 02:20:12;;;;;;;5.22;4.18;;;;;;;;;;4965699;28;20645;-93
2022/01/07 02:22:39;;;;;;;5.97;4.47;;;;;;;;;;4967403;28;20838;-92
2022/01/07 02:25:07;;;;;;;5.03;4.00;;;;;;;;;;4967388;28;20415;-93
2022/01/07 02:27:37;;;;;;;5.28;4.20;;;;;;;;;;4969214;28;20422;-94
2022/01/07 02:30:06;;;;;;;5.63;4.35;;;;;;;;;;4969692;28;20419;-94
2022/01/07 02:32:34;;;;;;;6.57;4.57;;;;;;;;;;4969256;28;20414;-93
2022/01/07 02:35:00;;;;;;;5.93;4.50;;;;;;;;;;4969026;28;20429;-92
2022/01/07 02:37:29;;;;;;;5.50;4.43;;;;;;;;;;4969184;28;20499;-92
2022/01/07 02:39:56;;;;;;;7.10;4.90;;;;;;;;;;4966655;28;20702;-93
2022/01/07 02:42:25;;;;;;;6.03;4.43;;;;;;;;;;4969215;28;20415;-93
2022/01/07 02:44:52;;;;;;;6.30;4.50;;;;;;;;;;4966371;28;20670;-92
2022/01/07 02:47:20;;;;;;;5.25;4.50;;;;;;;;;;4969177;28;20722;-93
2022/01/07 02:49:48;;;;;;;6.22;4.80;;;;;;;;;;4968869;28;20419;-93
2022/01/07 02:52:15;;;;;;;6.28;4.35;;;;;;;;;;4967434;28;20422;-94
2022/01/07 02:54:43;;;;;;;5.53;4.20;;;;;;;;;;4967214;28;20938;-92
2022/01/07 02:57:10;;;;;;;5.05;4.20;;;;;;;;;;4969649;28;20895;-92
2022/01/07 02:59:37;;;;;;;5.55;4.30;;;;;;;;;;4968592;28;20430;-93
2022/01/07 03:02:05;;;;;;;5.68;4.50;;;;;;;;;;4969343;28;20422;-93
2022/01/07 03:04:32;;;;;;;5.13;4.10;;;;;;;;;;4969219;28;20437;-93
2022/01/07 03:06:59;;;;;;;5.95;4.55;;;;;;;;;;4969378;28;20421;-93
2022/01/07 03:09:26;;;;;;;6.20;4.00;;;;;;;;;;4966388;28;20539;-92
2022/01/07 03:11:54;;;;;;;5.32;3.92;;;;;;;;;;4969803;28;20422;-92
2022/01/07 03:14:21;;;;;;;5.68;3.88;;;;;;;;;;4981310;28;20787;-92
2022/01/07 03:16:48;;;;;;;5.63;3.95;;;;;;;;;;4992830;28;20398;-93
2022/01/07 03:19:15;;;;;;;5.47;4.05;;;;;;;;;;4971068;28;20406;-92
2022/01/07 03:21:42;;;;;;;6.00;4.38;;;;;;;;;;4969109;28;20422;-92
2022/01/07 03:24:09;;;;;;;5.28;4.20;;;;;;;;;;4967526;28;20418;-93
2022/01/07 03:26:36;;;;;;;5.25;3.92;;;;;;;;;;4966838;28;20414;-93
2022/01/07 03:29:04;;;;;;;5.07;4.20;;;;;;;;;;4969256;28;20495;-94
2022/01/07 03:31:31;;;;;;;5.97;4.10;;;;;;;;;;4968517;28;20415;-93
2022/01/07 03:33:58;;;;;;;4.75;4.00;;;;;;;;;;4968952;28;20414;-92
2022/01/07 03:36:25;;;;;;;6.22;4.10;;;;;;;;;;4969148;28;20415;-93
2022/01/07 03:38:52;;;;;;;5.13;4.10;;;;;;;;;;4969460;28;20427;-92
2022/01/07 03:41:19;;;;;;;5.07;3.83;;;;;;;;;;4966591;28;20811;-92
2022/01/07 03:43:46;;;;;;;4.65;3.92;;;;;;;;;;4968513;28;20429;-92
2022/01/07 03:46:15;;;;;;;4.95;4.30;;;;;;;;;;4969119;28;20415;-92
2022/01/07 03:48:41;;;;;;;5.38;4.28;;;;;;;;;;4968914;28;20418;-92
2022/01/07 03:51:08;;;;;;;5.97;4.15;;;;;;;;;;4968559;28;20418;-93
2022/01/07 03:53:35;;;;;;;6.23;4.17;;;;;;;;;;4968449;28;20421;-94
2022/01/07 03:56:02;;;;;;;6.15;4.07;;;;;;;;;;4966989;28;20828;-93
2022/01/07 03:58:29;;;;;;;6.97;4.43;;;;;;;;;;4968021;28;20410;-93
2022/01/07 04:00:56;;;;;;;5.25;4.00;;;;;;;;;;4968049;28;20414;-93
2022/01/07 04:03:25;;;;;;;5.15;4.25;;;;;;;;;;4968534;28;20419;-93
2022/01/07 04:05:51;;;;;;;4.97;3.83;;;;;;;;;;4968126;28;20414;-92
2022/01/07 04:08:18;;;;;;;5.57;4.18;;;;;;;;;;4968446;28;20795;-94
2022/01/07 04:10:45;;;;;;;5.15;4.05;;;;;;;;;;4966233;28;20428;-93
2022/01/07 04:13:12;;;;;;;5.72;3.97;;;;;;;;;;4967890;28;20768;-93
2022/01/07 04:15:39;;;;;;;5.03;4.15;;;;;;;;;;4968055;28;20429;-93
2022/01/07 04:18:06;;;;;;;6.40;4.10;;;;;;;;;;4968067;28;20425;-93
2022/01/07 04:20:37;;;;;;;5.20;4.10;;;;;;;;;;4968158;28;20899;-93
2022/01/07 04:23:08;;;;;;;5.18;4.20;;;;;;;;;;4951376;28;21904;-93
2022/01/07 04:25:35;;;;;;;5.55;4.20;;;;;;;;;;4945075;28;20412;-92
2022/01/07 04:28:06;;;;;;;6.35;4.60;;;;;;;;;;4949443;28;20425;-95
2022/01/07 04:30:36;;;;;;;5.63;4.68;;;;;;;;;;4949178;28;20981;-92
2022/01/07 04:33:04;;;;;;;6.35;4.90;;;;;;;;;;4949633;28;20427;-93
2022/01/07 04:35:33;;;;;;;6.78;5.15;;;;;;;;;;4948612;28;20491;-91
2022/01/07 04:38:02;;;;;;;6.57;4.75;;;;;;;;;;4948816;28;20834;-92
2022/01/07 04:40:29;;;;;;;5.70;5.07;;;;;;;;;;4945535;28;20762;-92
2022/01/07 04:42:56;;;;;;;5.97;5.32;;;;;;;;;;4950437;28;20412;-92
2022/01/07 04:45:23;;;;;;;6.25;5.00;;;;;;;;;;4953412;28;20491;-92
2022/01/07 04:47:52;;;;;;;6.65;5.60;;;;;;;;;;4955078;28;20884;-92
2022/01/07 04:50:21;;;;;;;7.38;5.50;;;;;;;;;;4964843;28;20415;-91
2022/01/07 04:52:48;;;;;;;6.35;4.95;;;;;;;;;;4957515;28;20431;-93
2022/01/07 04:55:18;;;;;;;6.13;5.20;;;;;;;;;;4953354;28;20422;-92
2022/01/07 04:57:46;;;;;;;8.13;5.20;;;;;;;;;;4951630;28;20904;-93
2022/01/07 05:00:15;;;;;;;5.55;4.95;;;;;;;;;;4948653;28;20424;-93
2022/01/07 05:02:42;;;;;;;7.90;5.70;;;;;;;;;;4947866;28;20431;-94
2022/01/07 05:05:10;;;;;;;7.05;5.13;;;;;;;;;;4953468;28;20759;-92
2022/01/07 05:07:37;;;;;;;7.57;5.50;;;;;;;;;;4947432;28;20708;-91
2022/01/07 05:10:05;;;;;;;6.35;5.22;;;;;;;;;;4947133;28;20423;-93
2022/01/07 05:12:34;;;;;;;6.70;5.18;;;;;;;;;;4949442;28;20504;-93
2022/01/07 05:15:01;;;;;;;6.28;5.15;;;;;;;;;;4951088;28;20427;-93
2022/01/07 05:17:28;;;;;;;6.60;5.18;;;;;;;;;;4951148;28;20424;-93
2022/01/07 05:19:55;;;;;;;7.18;5.20;;;;;;;;;;4951558;28;20765;-93
2022/01/07 05:22:22;;;;;;;6.43;4.78;;;;;;;;;;4949532;29;20415;-92
2022/01/07 05:24:49;;;;;;;5.72;4.60;;;;;;;;;;4950314;28;20423;-93
2022/01/07 05:27:16;;;;;;;6.50;5.05;;;;;;;;;;4951225;28;20416;-93
2022/01/07 05:29:45;;;;;;;6.80;4.70;;;;;;;;;;4951809;28;20420;-92
2022/01/07 05:32:12;;;;;;;7.00;5.20;;;;;;;;;;4951523;28;20424;-92
2022/01/07 05:34:39;;;;;;;6.45;4.95;;;;;;;;;;4951561;28;20420;-92
2022/01/07 05:37:07;;;;;;;5.32;4.80;;;;;;;;;;4951269;28;20419;-92
2022/01/07 05:39:34;;;;;;;5.53;4.30;;;;;;;;;;4947904;28;20688;-92
2022/01/07 05:42:01;;;;;;;6.18;4.78;;;;;;;;;;4951375;28;20932;-90
2022/01/07 05:44:28;;;;;;;5.50;4.50;;;;;;;;;;4951189;28;20423;-93
2022/01/07 05:46:57;;;;;;;6.55;4.55;;;;;;;;;;4950708;28;20412;-91
2022/01/07 05:49:24;;;;;;;6.20;5.00;;;;;;;;;;4950876;28;21183;-92
2022/01/07 05:51:51;;;;;;;6.60;4.75;;;;;;;;;;4950672;28;20413;-92
2022/01/07 05:54:18;;;;;;;5.63;4.30;;;;;;;;;;4949380;28;20423;-92
2022/01/07 05:56:45;;;;;;;6.03;4.50;;;;;;;;;;4950580;28;20412;-92
2022/01/07 05:59:12;;;;;;;5.13;4.10;;;;;;;;;;4950555;28;20416;-93
2022/01/07 06:01:39;;;;;;;4.80;4.03;;;;;;;;;;4951000;28;20471;-92
2022/01/07 06:04:08;;;;;;;4.75;3.85;;;;;;;;;;4950433;28;20428;-92
2022/01/07 06:06:34;;;;;;;5.45;3.90;;;;;;;;;;4953862;28;20424;-92
2022/01/07 06:09:01;;;;;;;5.00;3.97;;;;;;;;;;4955468;28;20420;-91
2022/01/07 06:11:28;;;;;;;4.57;3.50;;;;;;;;;;4973435;28;20414;-92
2022/01/07 06:13:55;;;;;;;4.90;3.90;;;;;;;;;;4962673;28;20442;-92
2022/01/07 06:16:22;;;;;;;4.65;3.63;;;;;;;;;;4948625;29;20897;-92
2022/01/07 06:18:53;;;;;;;4.75;3.42;;;;;;;;;;4950668;28;20427;-92
2022/01/07 06:21:22;;;;;;;4.72;3.67;;;;;;;;;;4950810;28;20479;-93
2022/01/07 06:23:50;;;;;;;5.03;3.83;;;;;;;;;;4950116;28;20428;-93
2022/01/07 06:26:17;;;;;;;5.00;3.20;;;;;;;;;;4947963;28;20929;-92
2022/01/07 06:28:44;;;;;;;5.03;3.70;;;;;;;;;;4950440;28;20428;-93
2022/01/07 06:31:12;;;;;;;4.88;3.50;;;;;;;;;;4950691;28;20415;-91
2022/01/07 06:33:39;;;;;;;4.63;3.33;;;;;;;;;;4947368;29;20422;-92
2022/01/07 06:36:06;;;;;;;4.70;3.47;;;;;;;;;;4950095;28;20408;-92
2022/01/07 06:38:34;;;;;;;4.13;3.60;;;;;;;;;;4950605;28;20435;-91
2022/01/07 06:41:01;;;;;;;5.05;3.60;;;;;;;;;;4948339;28;20424;-90
2022/01/07 06:43:28;;;;;;;5.43;3.95;;;;;;;;;;4950072;28;20901;-92
2022/01/07 06:45:55;;;;;;;5.43;4.00;;;;;;;;;;4950327;28;20420;-91
2022/01/07 06:48:24;;;;;;;5.50;3.60;;;;;;;;;;4947781;29;20931;-91
2022/01/07 06:50:51;;;;;;;4.80;3.55;;;;;;;;;;4950162;28;20420;-92
2022/01/07 06:53:18;;;;;;;5.10;3.63;;;;;;;;;;4949740;28;20431;-91
2022/01/07 06:55:46;;;;;;;15.60;7.20;;;;;;;;;;4948324;28;20420;-92
2022/01/07 06:58:13;;;;;;;5.30;4.07;;;;;;;;;;4952230;28;20412;-92
2022/01/07 07:00:40;;;;;;;6.07;3.40;;;;;;;;;;4951194;28;20412;-92
2022/01/07 07:03:07;;;;;;;5.18;3.72;;;;;;;;;;4950125;28;20420;-91
2022/01/07 07:05:34;;;;;;;6.20;3.60;;;;;;;;;;4949583;28;20417;-92
2022/01/07 07:08:01;;;;;;;5.00;3.60;;;;;;;;;;4950339;28;20420;-92
2022/01/07 07:10:28;;;;;;;6.03;4.10;;;;;;;;;;4947811;28;20490;-92
2022/01/07 07:12:56;;;;;;;7.90;4.22;;;;;;;;;;4949786;28;20432;-92
2022/01/07 07:15:23;;;;;;;5.70;4.28;;;;;;;;;;4952559;29;20420;-92
2022/01/07 07:17:51;;;;;;;6.45;4.32;;;;;;;;;;4957666;28;20416;-92
2022/01/07 07:20:18;;;;;;;6.43;4.30;;;;;;;;;;4966341;28;20783;-93
2022/01/07 07:22:45;;;;;;;6.30;4.13;;;;;;;;;;4965002;28;20413;-92
2022/01/07 07:25:12;;;;;;;6.15;4.45;;;;;;;;;;4966214;28;20419;-94
2022/01/07 07:27:41;;;;;;;7.18;4.25;;;;;;;;;;4949489;29;20443;-92
2022/01/07 07:30:11;;;;;;;7.82;5.50;;;;;;;;;;4949220;28;20424;-93
2022/01/07 07:32:39;;;;;;;7.70;4.63;;;;;;;;;;4947002;29;20467;-92
2022/01/07 07:36:26;;;;;;;8.57;4.95;;;;;;;;;;4948644;28;20427;-92
2022/01/07 07:38:01;;;;;;;6.43;4.40;;;;;;;;;;4948038;28;20466;-93
2022/01/07 07:40:28;;;;;;;6.00;4.00;;;;;;;;;;4946859;28;20416;-92
2022/01/07 07:42:55;;;;;;;6.00;4.20;;;;;;;;;;4948908;28;20435;-91
2022/01/07 07:45:24;;;;;;;6.18;4.43;;;;;;;;;;4944985;29;20420;-91
2022/01/07 07:47:51;;;;;;;5.68;3.80;;;;;;;;;;4949134;28;20426;-91
2022/01/07 07:50:18;;;;;;;6.93;4.70;;;;;;;;;;4948998;28;20860;-92
2022/01/07 07:52:47;;;;;;;6.55;4.43;;;;;;;;;;4949263;28;20428;-92
2022/01/07 07:55:14;;;;;;;6.10;5.00;;;;;;;;;;4947721;28;20416;-91
2022/01/07 07:57:41;;;;;;;6.85;4.80;;;;;;;;;;4948821;28;20431;-92
2022/01/07 08:00:09;;;;;;;6.20;5.10;;;;;;;;;;4949520;28;20412;-92
2022/01/07 08:02:39;;;;;;;8.20;5.38;;;;;;;;;;4948858;28;20964;-92
2022/01/07 08:05:07;;;;;;;6.97;5.43;;;;;;;;;;4949233;28;20416;-91
2022/01/07 08:07:34;;;;;;;7.95;5.68;;;;;;;;;;4949006;28;20420;-92
2022/01/07 08:10:01;;;;;;;9.52;5.97;;;;;;;;;;4948557;28;20420;-92
2022/01/07 08:12:49;;;;;;;8.38;5.78;;;;;;;;;;4949116;28;20416;-91
2022/01/07 08:18:00;;;;;;;8.00;6.07;;;;;;;;;;4947026;29;20927;-92
2022/01/07 08:20:27;;;;;;;7.68;5.70;;;;;;;;;;4948600;28;20416;-93
2022/01/07 08:22:54;;;;;;;7.47;5.75;;;;;;;;;;4948278;28;20421;-92
2022/01/07 08:25:21;;;;;;;8.05;5.22;;;;;;;;;;4946673;28;20422;-92
2022/01/07 08:27:49;;;;;;;6.40;4.50;;;;;;;;;;4948247;28;20416;-92
2022/01/07 08:30:23;;;;;;;6.15;4.15;;;;;;;;;;4949128;28;20428;-93
2022/01/07 08:35:40;;;;;;;5.38;3.90;;;;;;;;;;4947922;29;20403;-92
2022/01/07 08:38:07;;;;;;;6.22;4.53;;;;;;;;;;4948322;28;20416;-92
2022/01/07 08:40:34;;;;;;;8.90;3.78;;;;;;;;;;4947083;28;20424;-91
2022/01/07 08:43:01;;;;;;;6.00;4.80;;;;;;;;;;4948922;28;20901;-92
2022/01/07 08:45:28;;;;;;;7.60;5.30;;;;;;;;;;4948398;28;20423;-92
2022/01/07 08:47:56;;;;;;;7.18;5.03;;;;;;;;;;4951550;28;20427;-91
2022/01/07 08:50:23;;;;;;;7.25;5.00;;;;;;;;;;4950176;29;20420;-91
2022/01/07 08:52:52;;;;;;;7.85;4.90;;;;;;;;;;4952055;28;20431;-92
2022/01/07 08:55:20;;;;;;;6.40;5.18;;;;;;;;;;4950911;28;20420;-92
2022/01/07 08:57:47;;;;;;;7.13;5.30;;;;;;;;;;4952431;28;20420;-93
2022/01/07 09:00:15;;;;;;;8.38;4.60;;;;;;;;;;4952375;28;20424;-91
2022/01/07 09:02:43;;;;;;;7.07;4.90;;;;;;;;;;4952439;29;20910;-91
2022/01/07 09:05:10;;;;;;;8.02;4.80;;;;;;;;;;4956228;29;20700;-92
2022/01/07 09:07:37;;;;;;;5.57;3.53;;;;;;;;;;4955444;28;20416;-92
2022/01/07 09:10:06;;;;;;;4.93;3.42;;;;;;;;;;4957567;28;20399;-92
2022/01/07 09:12:33;;;;;;;4.22;3.50;;;;;;;;;;4975934;28;20420;-92
2022/01/07 09:15:00;;;;;;;4.85;3.30;;;;;;;;;;4961209;28;20427;-93
2022/01/07 09:17:30;;;;;;;4.57;3.10;;;;;;;;;;4952252;28;20416;-93
2022/01/07 09:19:56;;;;;;;4.95;3.17;;;;;;;;;;4952374;28;20420;-91
2022/01/07 09:22:23;;;;;;;4.10;3.30;;;;;;;;;;4951977;28;20415;-91
2022/01/07 09:24:50;;;;;;;5.80;3.20;;;;;;;;;;4948824;28;20416;-92
2022/01/07 09:27:19;;;;;;;4.57;3.03;;;;;;;;;;4952321;28;20423;-92
2022/01/07 09:29:46;;;;;;;4.95;3.55;;;;;;;;;;4951763;28;20412;-92
2022/01/07 09:32:13;;;;;;;3.83;2.92;;;;;;;;;;4952341;28;20542;-91
2022/01/07 09:34:40;;;;;;;5.18;3.25;;;;;;;;;;4954348;28;20424;-92
2022/01/07 09:37:07;;;;;;;5.22;3.00;;;;;;;;;;4955120;28;20420;-92
2022/01/07 09:39:36;;;;;;;6.68;3.00;;;;;;;;;;4949159;28;20425;-92
2022/01/07 09:42:05;;;;;;;4.40;2.85;;;;;;;;;;4951711;28;20495;-92
2022/01/07 09:44:37;;;;;;;4.75;3.15;;;;;;;;;;4951525;29;20658;-91
2022/01/07 09:47:05;;;;;;;4.30;2.85;;;;;;;;;;4951905;28;20428;-92
2022/01/07 09:49:34;;;;;;;4.82;2.65;;;;;;;;;;4952105;28;20438;-91
2022/01/07 09:52:01;;;;;;;3.42;2.40;;;;;;;;;;4951666;28;20909;-92
2022/01/07 09:54:28;;;;;;;3.77;2.53;;;;;;;;;;4948198;28;20442;-92
2022/01/07 09:56:55;;;;;;;3.63;2.25;;;;;;;;;;4949380;28;20423;-92
2022/01/07 09:59:22;;;;;;;4.37;2.13;;;;;;;;;;4950351;28;20439;-92
2022/01/07 10:01:58;;;;;;;3.03;2.40;;;;;;;;;;4951419;28;20419;-91
2022/01/07 10:04:31;;;;;;;2.55;1.88;;;;;;;;;;4949251;29;20481;-92
2022/01/07 10:07:16;;;;;;;4.95;2.10;;;;;;;;;;4950240;29;20767;-92
2022/01/07 10:09:58;;;;;;;3.20;2.10;;;;;;;;;;4948014;29;20432;-92
2022/01/07 10:12:26;;;;;;;2.63;2.00;;;;;;;;;;4947353;29;20423;-92
2022/01/07 10:15:11;;;;;;;5.18;2.10;;;;;;;;;;4948488;29;20420;-91
2022/01/07 10:17:41;;;;;;;2.40;1.98;;;;;;;;;;4950964;29;20523;-91
2022/01/07 10:20:09;;;;;;;2.20;1.97;;;;;;;;;;4950664;28;20600;-93
2022/01/07 10:22:51;;;;;;;2.78;2.00;;;;;;;;;;4949968;28;20421;-94
2022/01/07 10:25:23;;;;;;;3.58;2.00;;;;;;;;;;4947560;29;20480;-92
2022/01/07 10:27:50;;;;;;;3.17;2.20;;;;;;;;;;4950754;28;20412;-94
2022/01/07 10:30:25;;;;;;;2.78;2.00;;;;;;;;;;4951015;28;20416;-91
2022/01/07 10:32:54;;;;;;;2.63;1.88;;;;;;;;;;4951502;28;20495;-93
2022/01/07 10:35:23;;;;;;;2.55;1.83;;;;;;;;;;4950798;28;20479;-91
2022/01/07 10:37:53;;;;;;;1.90;1.67;;;;;;;;;;4951321;28;20415;-93
2022/01/07 10:40:23;;;;;;;2.45;1.55;;;;;;;;;;4949933;28;20420;-93
2022/01/07 10:42:50;;;;;;;2.28;1.50;;;;;;;;;;4950450;28;20408;-93
2022/01/07 10:45:17;;;;;;;4.07;1.60;;;;;;;;;;4951916;28;20420;-92
2022/01/07 10:47:50;;;;;;;3.90;1.70;;;;;;;;;;4950291;28;20416;-92
2022/01/07 10:50:20;;;;;;;2.80;1.50;;;;;;;;;;4948704;29;21294;-93
2022/01/07 10:52:47;;;;;;;2.38;1.50;;;;;;;;;;4951853;28;20416;-92
2022/01/07 10:55:18;;;;;;;2.95;1.67;;;;;;;;;;4957726;28;20431;-93
2022/01/07 10:57:52;;;;;;;2.70;1.60;;;;;;;;;;4966408;29;20420;-92
2022/01/07 11:00:21;;;;;;;2.40;1.60;;;;;;;;;;4964518;29;20408;-93
2022/01/07 11:02:49;;;;;;;2.53;1.80;;;;;;;;;;4962012;28;20420;-93
2022/01/07 11:05:16;;;;;;;1.67;1.30;;;;;;;;;;4953268;28;20492;-93
2022/01/07 11:07:45;;;;;;;2.28;1.30;;;;;;;;;;4950326;28;20447;-93
2022/01/07 11:10:12;;;;;;;1.65;1.40;;;;;;;;;;4944923;29;20414;-92
2022/01/07 11:12:40;;;;;;;2.25;1.30;;;;;;;;;;4949870;28;20424;-92
2022/01/07 11:15:09;;;;;;;2.80;1.55;;;;;;;;;;4949403;28;20424;-93
2022/01/07 11:17:37;;;;;;;1.80;1.20;;;;;;;;;;4949577;28;21452;-93
2022/01/07 11:20:07;;;;;;;1.58;1.35;;;;;;;;;;4949394;28;20416;-92
2022/01/07 11:22:38;;;;;;;2.28;1.58;;;;;;;;;;4946908;28;21026;-92
2022/01/07 11:25:10;;;;;;;2.05;1.35;;;;;;;;;;4947482;28;20475;-91
2022/01/07 11:27:49;;;;;;;1.65;1.23;;;;;;;;;;4949500;28;20428;-93
2022/01/07 11:30:18;;;;;;;1.77;1.50;;;;;;;;;;4948969;29;20776;-92
2022/01/07 11:32:46;;;;;;;1.63;1.20;;;;;;;;;;4949727;28;20769;-91
2022/01/07 11:35:45;;;;;;;2.40;1.48;;;;;;;;;;4948455;29;20440;-92
2022/01/07 11:38:36;;;;;;;1.85;1.33;;;;;;;;;;4948501;29;20448;-92
2022/01/07 11:41:17;;;;;;;3.05;1.30;;;;;;;;;;4945269;28;20790;-92
2022/01/07 11:43:47;;;;;;;1.17;0.95;;;;;;;;;;4948628;29;20420;-92
2022/01/07 11:46:29;;;;;;;2.08;1.00;;;;;;;;;;4948536;29;20415;-92
2022/01/07 11:49:00;;;;;;;1.92;1.42;;;;;;;;;;4947704;29;20889;-91
2022/01/07 11:51:37;;;;;;;1.67;1.35;;;;;;;;;;4947439;29;20412;-93
2022/01/07 11:54:11;;;;;;;2.33;1.80;;;;;;;;;;4946754;29;20482;-92
2022/01/07 11:56:40;;;;;;;2.58;1.90;;;;;;;;;;4948501;29;20790;-92
2022/01/07 11:59:26;;;;;;;3.05;1.80;;;;;;;;;;4948633;28;20424;-92
2022/01/07 12:02:02;;;;;;;3.00;2.10;;;;;;;;;;4946674;29;20452;-92
2022/01/07 12:04:31;;;;;;;3.28;1.70;;;;;;;;;;4945721;29;20439;-92
2022/01/07 12:07:01;;;;;;;3.25;1.80;;;;;;;;;;4949288;28;20713;-91
2022/01/07 12:09:31;;;;;;;3.60;2.10;;;;;;;;;;4947249;28;20412;-92
2022/01/07 12:12:02;;;;;;;2.45;1.90;;;;;;;;;;4949389;28;20419;-92
2022/01/07 12:14:36;;;;;;;1.90;1.50;;;;;;;;;;4952085;28;20579;-93
2022/01/07 12:17:05;;;;;;;1.70;1.50;;;;;;;;;;4949656;28;20435;-92
2022/01/07 12:20:35;;;;;;;2.20;1.50;;;;;;;;;;4948523;28;20481;-91
2022/01/07 12:23:03;;;;;;;1.90;1.50;;;;;;;;;;4946543;29;20412;-92
2022/01/07 12:25:30;;;;;;;2.63;1.50;;;;;;;;;;4946794;28;20985;-93
2022/01/07 12:28:08;;;;;;;3.00;1.37;;;;;;;;;;4949941;28;20420;-93
2022/01/07 12:30:35;;;;;;;2.53;1.47;;;;;;;;;;4948326;29;20412;-91
2022/01/07 12:33:10;;;;;;;2.70;1.40;;;;;;;;;;4948856;28;20411;-92
2022/01/07 12:35:38;;;;;;;1.92;1.20;;;;;;;;;;4950280;28;21163;-93
2022/01/07 12:38:18;;;;;;;2.67;1.40;;;;;;;;;;4951911;28;20408;-92
2022/01/07 12:40:56;;;;;;;2.15;1.30;;;;;;;;;;4954480;28;20399;-92
2022/01/07 12:43:31;;;;;;;2.22;1.30;;;;;;;;;;4969624;28;20408;-92
2022/01/07 12:46:01;;;;;;;1.50;1.35;;;;;;;;;;4961380;28;20427;-92
2022/01/07 12:48:32;;;;;;;2.42;1.48;;;;;;;;;;4948416;28;20892;-92
2022/01/07 12:51:01;;;;;;;2.80;1.60;;;;;;;;;;4947259;29;20423;-92
2022/01/07 12:53:28;;;;;;;2.42;1.40;;;;;;;;;;4948341;28;20780;-92
2022/01/07 12:55:55;;;;;;;2.08;1.30;;;;;;;;;;4946207;28;20411;-92
2022/01/07 12:58:31;;;;;;;2.00;1.10;;;;;;;;;;4949215;28;20420;-92
2022/01/07 13:00:58;;;;;;;2.47;1.25;;;;;;;;;;4948492;28;20420;-93
2022/01/07 13:03:26;;;;;;;2.95;1.33;;;;;;;;;;4946284;29;20412;-92
2022/01/07 13:06:04;;;;;;;1.23;1.00;;;;;;;;;;4944704;29;20462;-93
2022/01/07 13:08:37;;;;;;;2.00;1.40;;;;;;;;;;4947572;29;20821;-91
2022/01/07 13:11:03;;;;;;;1.70;1.25;;;;;;;;;;4947390;28;21195;-92
2022/01/07 13:13:32;;;;;;;1.77;1.48;;;;;;;;;;4952561;28;20434;-93
2022/01/07 13:16:02;;;;;;;3.05;1.40;;;;;;;;;;4954824;28;20412;-91
2022/01/07 13:18:31;;;;;;;2.23;1.30;;;;;;;;;;4956138;28;20447;-93
2022/01/07 13:21:10;;;;;;;2.37;1.40;;;;;;;;;;4955835;28;20416;-90
2022/01/07 13:23:39;;;;;;;2.45;1.38;;;;;;;;;;4955205;29;20420;-91
2022/01/07 13:26:06;;;;;;;2.25;1.17;;;;;;;;;;4953676;29;20430;-92
2022/01/07 13:28:40;;;;;;;6.10;3.13;;;;;;;;;;4950866;28;20420;-92
2022/01/07 13:31:09;;;;;;;2.15;1.63;;;;;;;;;;4951265;28;20411;-92
2022/01/07 13:33:36;;;;;;;2.95;1.58;;;;;;;;;;4950648;28;20763;-93
2022/01/07 13:36:06;;;;;;;2.55;1.50;;;;;;;;;;4951409;28;20421;-92
2022/01/07 13:38:34;;;;;;;2.25;1.65;;;;;;;;;;4950872;28;20427;-92
2022/01/07 13:41:06;;;;;;;3.08;1.73;;;;;;;;;;4949803;28;20785;-93
2022/01/07 13:43:35;;;;;;;3.40;2.40;;;;;;;;;;4951876;28;20418;-93
2022/01/07 13:46:11;;;;;;;3.40;2.20;;;;;;;;;;4951624;28;20423;-93
2022/01/07 13:48:53;;;;;;;2.88;1.90;;;;;;;;;;4951372;28;20436;-93
2022/01/07 13:51:21;;;;;;;2.37;1.90;;;;;;;;;;4947331;28;20416;-92
2022/01/07 13:54:14;;;;;;;2.65;1.85;;;;;;;;;;4950994;28;20900;-93
2022/01/07 13:56:44;;;;;;;3.17;2.08;;;;;;;;;;4950447;29;20420;-93
2022/01/07 13:59:13;;;;;;;3.08;1.98;;;;;;;;;;4950959;28;20507;-93
2022/01/07 14:01:56;;;;;;;1.95;1.73;;;;;;;;;;4950666;28;20427;-93
2022/01/07 14:04:56;;;;;;;2.22;1.90;;;;;;;;;;4951047;28;20413;-94
2022/01/07 14:07:28;;;;;;;2.22;1.90;;;;;;;;;;4950218;29;20466;-93
2022/01/07 14:10:13;;;;;;;2.35;1.75;;;;;;;;;;4945976;29;20467;-93
2022/01/07 14:12:51;;;;;;;1.80;1.60;;;;;;;;;;4948964;29;20793;-91
2022/01/07 14:15:20;;;;;;;2.58;1.60;;;;;;;;;;4950068;28;20455;-93
2022/01/07 14:17:50;;;;;;;2.10;1.90;;;;;;;;;;4950954;28;20443;-93
2022/01/07 14:20:17;;;;;;;2.97;1.98;;;;;;;;;;4950154;29;20648;-92
2022/01/07 14:22:45;;;;;;;2.58;2.28;;;;;;;;;;4949519;28;20424;-93
2022/01/07 14:25:17;;;;;;;2.75;2.15;;;;;;;;;;4949216;28;20416;-93
2022/01/07 14:27:45;;;;;;;3.90;2.60;;;;;;;;;;4950511;28;20416;-93
2022/01/07 14:30:15;;;;;;;3.40;2.50;;;;;;;;;;4950561;28;20412;-93
2022/01/07 14:32:43;;;;;;;2.63;2.07;;;;;;;;;;4950786;28;20503;-92
2022/01/07 14:35:12;;;;;;;3.80;2.17;;;;;;;;;;4949820;28;20432;-92
2022/01/07 14:37:40;;;;;;;3.17;1.88;;;;;;;;;;4950418;28;20900;-93
2022/01/07 14:40:09;;;;;;;2.55;1.80;;;;;;;;;;4948141;28;20412;-92
2022/01/07 14:42:36;;;;;;;2.83;1.90;;;;;;;;;;4949968;28;20412;-92
2022/01/07 14:45:05;;;;;;;3.10;1.90;;;;;;;;;;4949901;28;20467;-92
2022/01/07 14:47:32;;;;;;;3.63;1.70;;;;;;;;;;4950369;28;20953;-92
2022/01/07 14:49:59;;;;;;;3.17;1.95;;;;;;;;;;4949563;28;20429;-93
2022/01/07 14:52:27;;;;;;;3.38;2.05;;;;;;;;;;4951035;28;20427;-92
2022/01/07 14:54:55;;;;;;;2.30;2.10;;;;;;;;;;4949914;29;20419;-92
2022/01/07 14:57:22;;;;;;;3.03;2.30;;;;;;;;;;4951517;28;20443;-92
2022/01/07 14:59:50;;;;;;;2.70;1.95;;;;;;;;;;4950328;28;20427;-92